createdAt,value
2019-05-19T00:01:33.805Z,62.66
2019-05-19T00:04:04.460Z,63.10
2019-05-19T00:06:35.148Z,63.35
2019-05-19T00:09:06.578Z,62.85
2019-05-19T00:11:37.154Z,62.35
2019-05-19T00:14:07.842Z,62.64
2019-05-19T00:16:38.439Z,61.92
2019-05-19T00:19:09.069Z,62.19
2019-05-19T00:21:39.642Z,62.21
2019-05-19T00:24:10.240Z,62.22
2019-05-19T00:26:40.821Z,62.24
2019-05-19T00:29:11.393Z,62.38
2019-05-19T00:31:41.971Z,62.27
2019-05-19T00:34:12.553Z,62.11
2019-05-19T00:36:43.150Z,61.62
2019-05-19T00:39:13.739Z,61.35
2019-05-19T00:41:44.370Z,61.82
2019-05-19T00:44:14.942Z,61.84
2019-05-19T00:46:45.581Z,61.57
2019-05-19T00:49:17.109Z,61.65
2019-05-19T00:51:47.775Z,61.65
2019-05-19T00:54:18.373Z,62.11
2019-05-19T00:56:49.949Z,62.25
2019-05-19T00:59:21.257Z,62.46
2019-05-19T01:01:52.041Z,62.64
2019-05-19T01:04:22.724Z,63.39
2019-05-19T01:06:53.321Z,63.33
2019-05-19T01:09:23.903Z,63.12
2019-05-19T01:11:54.471Z,63.10
2019-05-19T01:14:25.061Z,63.88
2019-05-19T01:16:56.746Z,64.23
2019-05-19T01:19:27.659Z,63.39
2019-05-19T01:22:00.777Z,62.93
2019-05-19T01:24:31.510Z,62.76
2019-05-19T01:27:02.093Z,62.42
2019-05-19T01:29:32.742Z,62.39
2019-05-19T01:32:04.858Z,62.54
2019-05-19T01:34:35.540Z,62.18
2019-05-19T01:37:06.121Z,62.48
2019-05-19T01:39:36.688Z,62.52
2019-05-19T01:42:07.286Z,62.23
2019-05-19T01:44:37.874Z,62.62
2019-05-19T01:47:08.454Z,62.69
2019-05-19T01:49:39.077Z,63.63
2019-05-19T01:52:10.737Z,63.14
2019-05-19T01:54:41.337Z,63.01
2019-05-19T01:57:11.994Z,62.63
2019-05-19T01:59:42.598Z,62.22
2019-05-19T02:02:13.284Z,62.13
2019-05-19T02:04:43.920Z,61.83
2019-05-19T02:07:14.467Z,62.78
2019-05-19T02:09:45.048Z,63.10
2019-05-19T02:12:15.631Z,64.50
2019-05-19T02:14:46.217Z,64.06
2019-05-19T02:17:16.791Z,63.35
2019-05-19T02:19:47.369Z,63.79
2019-05-19T02:22:17.949Z,62.91
2019-05-19T02:24:48.536Z,63.23
2019-05-19T02:27:19.143Z,62.81
2019-05-19T02:29:49.720Z,61.87
2019-05-19T02:32:20.300Z,61.98
2019-05-19T02:34:51.448Z,62.17
2019-05-19T02:37:22.033Z,61.80
2019-05-19T02:39:52.601Z,61.87
2019-05-19T02:42:25.922Z,62.11
2019-05-19T02:44:58.607Z,62.24
2019-05-19T02:47:31.444Z,63.54
2019-05-19T02:50:03.489Z,63.17
2019-05-19T02:52:34.802Z,63.27
2019-05-19T02:55:06.328Z,63.70
2019-05-19T02:57:38.233Z,64.32
2019-05-19T03:00:10.654Z,63.43
2019-05-19T03:02:41.237Z,64.13
2019-05-19T03:05:11.969Z,64.35
2019-05-19T03:07:42.564Z,64.64
2019-05-19T03:10:13.600Z,65.30
2019-05-19T03:12:44.171Z,66.05
2019-05-19T03:15:14.754Z,64.64
2019-05-19T03:17:45.438Z,65.26
2019-05-19T03:20:16.005Z,64.27
2019-05-19T03:22:46.600Z,63.85
2019-05-19T03:25:17.311Z,64.13
2019-05-19T03:27:47.961Z,63.94
2019-05-19T03:30:36.413Z,64.07
2019-05-19T03:33:11.593Z,64.24
2019-05-19T03:35:42.170Z,64.32
2019-05-19T03:38:12.735Z,64.65
2019-05-19T03:40:43.324Z,64.60
2019-05-19T03:43:13.998Z,64.56
2019-05-19T03:45:44.578Z,64.40
2019-05-19T03:48:15.184Z,64.23
2019-05-19T03:50:45.767Z,63.45
2019-05-19T03:53:16.375Z,63.14
2019-05-19T03:55:46.972Z,63.04
2019-05-19T03:58:17.542Z,62.86
2019-05-19T04:00:48.171Z,62.60
2019-05-19T04:03:18.747Z,62.54
2019-05-19T04:05:49.325Z,64.98
2019-05-19T04:08:19.904Z,65.09
2019-05-19T04:10:50.492Z,64.24
2019-05-19T04:13:21.087Z,64.84
2019-05-19T04:15:51.695Z,63.40
2019-05-19T04:18:22.307Z,64.37
2019-05-19T04:20:53.090Z,64.30
2019-05-19T04:23:23.696Z,63.99
2019-05-19T04:25:54.389Z,63.38
2019-05-19T04:28:24.958Z,65.51
2019-05-19T04:30:55.543Z,65.19
2019-05-19T04:33:26.155Z,66.89
2019-05-19T04:35:57.722Z,66.92
2019-05-19T04:38:28.490Z,65.85
2019-05-19T04:40:59.421Z,66.62
2019-05-19T04:43:30.245Z,67.19
2019-05-19T04:46:00.810Z,65.05
2019-05-19T04:48:31.587Z,66.77
2019-05-19T04:51:03.810Z,66.11
2019-05-19T04:53:35.076Z,65.67
2019-05-19T04:56:05.689Z,65.83
2019-05-19T04:58:36.277Z,66.74
2019-05-19T05:01:07.117Z,66.41
2019-05-19T05:03:37.767Z,67.58
2019-05-19T05:06:08.526Z,65.80
2019-05-19T05:08:39.471Z,66.03
2019-05-19T05:11:10.099Z,65.82
2019-05-19T05:13:41.433Z,66.54
2019-05-19T05:16:12.060Z,66.92
2019-05-19T05:18:43.417Z,68.79
2019-05-19T05:21:15.152Z,69.29
2019-05-19T05:23:45.858Z,67.40
2019-05-19T05:26:16.477Z,68.52
2019-05-19T05:28:47.072Z,68.83
2019-05-19T05:31:17.770Z,64.29
2019-05-19T05:33:49.531Z,64.75
2019-05-19T05:36:20.169Z,63.38
2019-05-19T05:38:51.012Z,61.70
2019-05-19T05:41:21.603Z,62.99
2019-05-19T05:43:52.192Z,61.82
2019-05-19T05:46:22.909Z,62.07
2019-05-19T05:48:54.621Z,61.29
2019-05-19T05:51:25.218Z,63.38
2019-05-19T05:53:55.810Z,61.03
2019-05-19T05:56:26.445Z,60.13
2019-05-19T05:58:57.195Z,63.40
2019-05-19T06:01:28.186Z,61.37
2019-05-19T06:03:59.718Z,61.82
2019-05-19T06:06:30.833Z,62.45
2019-05-19T06:09:05.299Z,65.13
2019-05-19T06:11:35.993Z,64.82
2019-05-19T06:14:07.014Z,65.15
2019-05-19T06:16:38.595Z,65.46
2019-05-19T06:19:09.314Z,65.38
2019-05-19T06:21:39.914Z,67.42
2019-05-19T06:24:10.548Z,64.42
2019-05-19T06:26:41.866Z,60.11
2019-05-19T06:29:12.634Z,58.23
2019-05-19T06:31:43.655Z,55.90
2019-05-19T06:34:14.675Z,55.84
2019-05-19T06:36:45.607Z,59.73
2019-05-19T06:39:17.018Z,60.69
2019-05-19T06:41:48.437Z,60.66
2019-05-19T06:44:19.167Z,61.56
2019-05-19T06:46:50.525Z,61.17
2019-05-19T06:49:21.793Z,62.79
2019-05-19T06:51:52.493Z,62.79
2019-05-19T06:54:23.123Z,63.81
2019-05-19T06:56:53.856Z,65.28
2019-05-19T06:59:24.421Z,65.94
2019-05-19T07:01:55.033Z,67.91
2019-05-19T07:04:26.244Z,68.83
2019-05-19T07:06:57.679Z,69.48
2019-05-19T07:09:30.259Z,68.95
2019-05-19T07:12:01.655Z,72.20
2019-05-19T07:14:32.425Z,73.96
2019-05-19T07:17:03.284Z,73.89
2019-05-19T07:19:34.351Z,74.53
2019-05-19T07:22:05.234Z,74.35
2019-05-19T07:24:36.515Z,73.51
2019-05-19T07:27:08.749Z,74.49
2019-05-19T07:29:39.885Z,75.89
2019-05-19T07:32:11.339Z,74.96
2019-05-19T07:34:42.298Z,76.25
2019-05-19T07:37:13.394Z,76.53
2019-05-19T07:39:44.364Z,78.74
2019-05-19T07:42:15.196Z,77.32
2019-05-19T07:44:47.237Z,74.83
2019-05-19T07:47:18.354Z,72.72
2019-05-19T07:49:49.250Z,73.64
2019-05-19T07:52:20.677Z,75.04
2019-05-19T07:54:51.278Z,74.21
2019-05-19T07:57:22.433Z,73.63
2019-05-19T07:59:53.364Z,72.29
2019-05-19T08:02:23.982Z,71.57
2019-05-19T08:04:55.000Z,72.38
2019-05-19T08:07:25.732Z,71.49
2019-05-19T08:09:56.284Z,71.60
2019-05-19T08:12:27.202Z,70.66
2019-05-19T08:14:57.959Z,71.02
2019-05-19T08:17:28.846Z,68.83
2019-05-19T08:19:59.416Z,68.19
2019-05-19T08:22:29.985Z,68.21
2019-05-19T08:25:01.650Z,65.16
2019-05-19T08:27:32.727Z,64.82
2019-05-19T08:30:05.332Z,65.40
2019-05-19T08:32:35.899Z,63.75
2019-05-19T08:35:07.302Z,61.93
2019-05-19T08:37:37.980Z,61.80
2019-05-19T08:40:09.028Z,59.54
2019-05-19T08:42:39.597Z,58.54
2019-05-19T08:45:11.203Z,59.68
2019-05-19T08:47:42.260Z,59.64
2019-05-19T08:50:14.431Z,59.13
2019-05-19T08:52:45.777Z,60.69
2019-05-19T08:55:17.392Z,57.44
2019-05-19T08:57:48.106Z,59.30
2019-05-19T09:00:19.857Z,58.66
2019-05-19T09:02:50.433Z,58.34
2019-05-19T09:05:21.324Z,58.55
2019-05-19T09:07:52.387Z,56.22
2019-05-19T09:10:23.223Z,55.67
2019-05-19T09:12:54.359Z,56.46
2019-05-19T09:15:25.146Z,55.82
2019-05-19T09:17:55.938Z,57.61
2019-05-19T09:20:26.602Z,55.63
2019-05-19T09:22:57.620Z,55.95
2019-05-19T09:25:28.384Z,55.90
2019-05-19T09:27:59.112Z,55.32
2019-05-19T09:30:29.832Z,56.24
2019-05-19T09:33:00.449Z,56.49
2019-05-19T09:35:31.276Z,56.01
2019-05-19T09:38:03.603Z,56.34
2019-05-19T09:40:34.681Z,54.14
2019-05-19T09:43:05.528Z,54.06
2019-05-19T09:45:36.059Z,54.39
2019-05-19T09:48:06.734Z,53.97
2019-05-19T09:50:37.514Z,51.63
2019-05-19T09:53:08.252Z,49.87
2019-05-19T09:55:39.039Z,51.38
2019-05-19T09:58:09.728Z,52.72
2019-05-19T10:00:40.307Z,52.19
2019-05-19T10:03:11.417Z,52.73
2019-05-19T10:05:42.218Z,54.02
2019-05-19T10:08:13.492Z,55.05
2019-05-19T10:10:56.959Z,54.96
2019-05-19T10:13:28.259Z,53.11
2019-05-19T10:15:59.173Z,53.65
2019-05-19T10:18:30.394Z,54.91
2019-05-19T10:21:01.226Z,56.27
2019-05-19T10:23:32.098Z,54.72
2019-05-19T10:26:02.802Z,55.40
2019-05-19T10:28:33.478Z,54.65
2019-05-19T10:31:04.426Z,55.41
2019-05-19T10:33:35.434Z,55.95
2019-05-19T10:36:07.523Z,55.72
2019-05-19T10:38:38.170Z,55.49
2019-05-19T10:41:08.953Z,56.18
2019-05-19T10:43:39.967Z,54.98
2019-05-19T10:46:10.765Z,53.08
2019-05-19T10:48:43.501Z,54.60
2019-05-19T10:51:15.811Z,53.95
2019-05-19T10:53:46.578Z,54.15
2019-05-19T10:56:19.138Z,55.45
2019-05-19T10:58:51.299Z,55.87
2019-05-19T11:01:22.120Z,55.66
2019-05-19T11:03:53.127Z,55.70
2019-05-19T11:06:24.080Z,55.92
2019-05-19T11:08:55.231Z,55.61
2019-05-19T11:11:26.642Z,55.89
2019-05-19T11:13:57.800Z,55.54
2019-05-19T11:16:28.882Z,53.18
2019-05-19T11:19:01.587Z,53.16
2019-05-19T11:21:32.334Z,54.34
2019-05-19T11:24:03.344Z,53.08
2019-05-19T11:26:34.751Z,51.06
2019-05-19T11:29:06.152Z,50.45
2019-05-19T11:31:37.025Z,52.16
2019-05-19T11:34:08.498Z,52.82
2019-05-19T11:36:39.387Z,51.03
2019-05-19T11:39:10.206Z,52.20
2019-05-19T11:41:41.369Z,50.30
2019-05-19T11:44:12.713Z,49.93
2019-05-19T11:46:43.498Z,51.12
2019-05-19T11:49:14.748Z,49.65
2019-05-19T11:51:45.717Z,52.41
2019-05-19T11:54:17.470Z,50.03
2019-05-19T11:56:48.091Z,49.97
2019-05-19T11:59:18.748Z,50.48
2019-05-19T12:01:49.319Z,48.38
2019-05-19T12:04:20.147Z,46.79
2019-05-19T12:06:50.913Z,48.88
2019-05-19T12:09:21.534Z,48.25
2019-05-19T12:11:52.085Z,46.43
2019-05-19T12:14:22.658Z,49.53
2019-05-19T12:16:53.445Z,47.64
2019-05-19T12:19:26.002Z,48.45
2019-05-19T12:21:56.607Z,48.49
2019-05-19T12:24:27.297Z,49.34
2019-05-19T12:26:58.105Z,48.84
2019-05-19T12:29:28.839Z,49.88
2019-05-19T12:32:00.176Z,49.88
2019-05-19T12:34:32.604Z,50.81
2019-05-19T12:37:03.843Z,51.72
2019-05-19T12:39:36.220Z,50.45
2019-05-19T12:42:07.419Z,51.09
2019-05-19T12:44:38.540Z,49.54
2019-05-19T12:47:10.059Z,48.46
2019-05-19T12:49:58.727Z,48.09
2019-05-19T12:52:29.843Z,47.95
2019-05-19T12:55:00.624Z,48.32
2019-05-19T12:57:32.612Z,48.24
2019-05-19T13:00:03.363Z,48.11
2019-05-19T13:02:34.435Z,48.04
2019-05-19T13:05:06.536Z,48.13
2019-05-19T13:07:37.293Z,49.21
2019-05-19T13:10:08.396Z,48.99
2019-05-19T13:12:39.057Z,49.24
2019-05-19T13:15:10.185Z,50.52
2019-05-19T13:17:40.780Z,50.56
2019-05-19T13:20:12.289Z,50.53
2019-05-19T13:22:42.947Z,50.78
2019-05-19T13:25:14.491Z,49.20
2019-05-19T13:27:45.069Z,49.48
2019-05-19T13:30:15.886Z,50.15
2019-05-19T13:32:46.486Z,50.33
2019-05-19T13:35:17.187Z,50.15
2019-05-19T13:37:49.646Z,50.64
2019-05-19T13:40:20.380Z,49.92
2019-05-19T13:42:50.966Z,50.64
2019-05-19T13:45:21.749Z,50.22
2019-05-19T13:47:52.357Z,48.98
2019-05-19T13:50:24.035Z,49.14
2019-05-19T13:52:54.684Z,49.08
2019-05-19T13:55:25.255Z,50.05
2019-05-19T13:57:55.951Z,49.26
2019-05-19T14:00:26.692Z,48.81
2019-05-19T14:02:58.767Z,48.21
2019-05-19T14:05:29.621Z,49.14
2019-05-19T14:08:00.737Z,48.61
2019-05-19T14:10:32.205Z,49.61
2019-05-19T14:13:04.371Z,48.93
2019-05-19T14:15:35.094Z,50.23
2019-05-19T14:18:05.798Z,49.64
2019-05-19T14:20:36.416Z,49.67
2019-05-19T14:23:07.157Z,48.29
2019-05-19T14:25:37.926Z,49.02
2019-05-19T14:28:08.704Z,48.05
2019-05-19T14:30:39.282Z,48.85
2019-05-19T14:33:10.084Z,48.24
2019-05-19T14:35:40.763Z,47.61
2019-05-19T14:38:11.337Z,46.88
2019-05-19T14:40:42.680Z,47.18
2019-05-19T14:43:14.325Z,46.60
2019-05-19T14:45:44.913Z,47.79
2019-05-19T14:48:15.542Z,46.68
2019-05-19T14:50:46.152Z,47.05
2019-05-19T14:53:16.712Z,46.38
2019-05-19T14:55:47.388Z,45.46
2019-05-19T14:58:17.947Z,44.92
2019-05-19T15:00:48.522Z,45.15
2019-05-19T15:03:19.869Z,43.98
2019-05-19T15:05:50.425Z,46.01
2019-05-19T15:08:21.005Z,45.10
2019-05-19T15:10:51.663Z,45.16
2019-05-19T15:13:22.262Z,46.63
2019-05-19T15:15:52.798Z,45.70
2019-05-19T15:18:23.373Z,45.53
2019-05-19T15:20:53.965Z,45.88
2019-05-19T15:23:24.580Z,46.67
2019-05-19T15:25:55.261Z,47.17
2019-05-19T15:28:25.950Z,44.91
2019-05-19T15:30:56.636Z,46.23
2019-05-19T15:33:28.357Z,46.16
2019-05-19T15:35:58.923Z,45.93
2019-05-19T15:38:29.548Z,47.18
2019-05-19T15:41:00.080Z,46.75
2019-05-19T15:43:30.740Z,46.51
2019-05-19T15:46:01.344Z,46.54
2019-05-19T15:48:32.009Z,46.69
2019-05-19T15:51:04.063Z,45.81
2019-05-19T15:53:34.641Z,46.45
2019-05-19T15:56:05.223Z,46.83
2019-05-19T15:58:36.038Z,48.61
2019-05-19T16:01:06.616Z,50.22
2019-05-19T16:03:37.182Z,50.31
2019-05-19T16:06:07.853Z,51.48
2019-05-19T16:08:38.437Z,52.58
2019-05-19T16:11:09.021Z,53.84
2019-05-19T16:13:40.062Z,54.07
2019-05-19T16:16:10.622Z,54.29
2019-05-19T16:18:41.503Z,54.90
2019-05-19T16:21:13.655Z,55.67
2019-05-19T16:23:44.402Z,55.51
2019-05-19T16:26:14.961Z,56.55
2019-05-19T16:28:45.516Z,56.15
2019-05-19T16:31:16.141Z,57.38
2019-05-19T16:33:46.702Z,57.93
2019-05-19T16:36:17.661Z,58.02
2019-05-19T16:38:49.065Z,58.09
2019-05-19T16:41:19.639Z,58.28
2019-05-19T16:43:50.196Z,58.84
2019-05-19T16:46:20.798Z,58.52
2019-05-19T16:48:51.441Z,57.94
2019-05-19T16:51:22.054Z,59.00
2019-05-19T16:53:54.437Z,58.78
2019-05-19T16:56:25.987Z,58.94
2019-05-19T16:58:56.592Z,58.73
2019-05-19T17:01:27.388Z,58.68
2019-05-19T17:04:00.268Z,58.49
2019-05-19T17:06:32.443Z,58.64
2019-05-19T17:09:05.707Z,58.47
2019-05-19T17:11:37.051Z,57.82
2019-05-19T17:14:08.280Z,57.89
2019-05-19T17:16:39.426Z,57.53
2019-05-19T17:19:09.997Z,57.37
2019-05-19T17:21:41.364Z,57.34
2019-05-19T17:24:12.782Z,57.30
2019-05-19T17:26:43.844Z,57.32
2019-05-19T17:29:14.966Z,56.98
2019-05-19T17:31:46.506Z,57.38
2019-05-19T17:34:20.517Z,57.16
2019-05-19T17:36:52.048Z,57.62
2019-05-19T17:39:24.147Z,57.57
2019-05-19T17:41:54.871Z,57.20
2019-05-19T17:44:26.345Z,57.69
2019-05-19T17:46:57.668Z,57.47
2019-05-19T17:49:28.489Z,58.26
2019-05-19T17:52:00.092Z,57.90
2019-05-19T17:54:32.270Z,58.19
2019-05-19T17:57:04.114Z,58.73
2019-05-19T17:59:36.044Z,59.20
2019-05-19T18:02:07.169Z,59.79
2019-05-19T18:04:37.893Z,59.65
2019-05-19T18:07:08.832Z,59.92
2019-05-19T18:09:39.781Z,60.09
2019-05-19T18:12:12.224Z,59.04
2019-05-19T18:14:43.195Z,58.83
2019-05-19T18:17:13.952Z,59.38
2019-05-19T18:19:44.557Z,59.51
2019-05-19T18:22:15.572Z,59.13
2019-05-19T18:24:46.489Z,59.08
2019-05-19T18:27:17.385Z,57.50
2019-05-19T18:29:49.288Z,58.86
2019-05-19T18:32:20.596Z,58.07
2019-05-19T18:34:51.789Z,58.63
2019-05-19T18:37:25.770Z,59.39
2019-05-19T18:39:59.155Z,60.80
2019-05-19T18:42:31.559Z,60.80
2019-05-19T18:45:02.914Z,61.73
2019-05-19T18:47:33.643Z,62.51
2019-05-19T18:50:08.604Z,62.37
2019-05-19T18:52:39.388Z,63.40
2019-05-19T18:55:11.957Z,64.07
2019-05-19T18:57:43.230Z,64.12
2019-05-19T19:00:16.983Z,66.21
2019-05-19T19:02:49.644Z,65.75
2019-05-19T19:05:20.872Z,66.18
2019-05-19T19:07:55.719Z,66.69
2019-05-19T19:10:28.401Z,67.31
2019-05-19T19:12:59.343Z,67.32
2019-05-19T19:15:30.274Z,66.98
2019-05-19T19:18:01.542Z,66.66
2019-05-19T19:20:32.418Z,66.42
2019-05-19T19:23:05.227Z,66.15
2019-05-19T19:25:39.553Z,66.18
2019-05-19T19:28:10.899Z,65.52
2019-05-19T19:30:43.680Z,65.49
2019-05-19T19:33:14.780Z,65.16
2019-05-19T19:35:47.556Z,65.07
2019-05-19T19:38:18.346Z,65.91
2019-05-19T19:40:50.407Z,65.53
2019-05-19T19:43:20.836Z,65.99
2019-05-19T19:45:54.006Z,66.01
2019-05-19T19:48:24.883Z,65.29
2019-05-19T19:50:55.766Z,65.50
2019-05-19T19:53:26.605Z,65.07
2019-05-19T19:55:57.384Z,65.54
2019-05-19T19:58:27.801Z,65.63
2019-05-19T20:01:01.903Z,64.50
2019-05-19T20:03:32.561Z,65.00
2019-05-19T20:06:06.682Z,64.79
2019-05-19T20:08:37.858Z,64.28
2019-05-19T20:11:08.901Z,64.19
2019-05-19T20:13:42.702Z,63.31
2019-05-19T20:16:14.503Z,63.56
2019-05-19T20:18:45.648Z,62.13
2019-05-19T20:21:16.558Z,61.67
2019-05-19T20:23:48.028Z,61.79
2019-05-19T20:26:19.848Z,61.93
2019-05-19T20:28:50.676Z,62.24
2019-05-19T20:31:22.307Z,62.14
2019-05-19T20:33:52.839Z,61.38
2019-05-19T20:36:24.316Z,62.86
2019-05-19T20:38:55.460Z,63.68
2019-05-19T20:41:26.125Z,63.97
2019-05-19T20:43:57.631Z,63.87
2019-05-19T20:46:28.484Z,64.49
2019-05-19T20:49:00.701Z,64.89
2019-05-19T20:51:33.806Z,65.27
2019-05-19T20:54:05.307Z,64.74
2019-05-19T20:56:36.520Z,64.70
2019-05-19T20:59:07.247Z,64.71
2019-05-19T21:01:37.936Z,65.26
2019-05-19T21:04:08.503Z,65.39
2019-05-19T21:06:39.873Z,65.23
2019-05-19T21:09:11.355Z,64.99
2019-05-19T21:11:42.201Z,65.66
2019-05-19T21:14:12.902Z,65.47
2019-05-19T21:16:43.638Z,65.96
2019-05-19T21:19:14.633Z,65.48
2019-05-19T21:21:45.207Z,65.64
2019-05-19T21:24:15.913Z,65.62
2019-05-19T21:26:46.633Z,65.88
2019-05-19T21:29:17.204Z,65.94
2019-05-19T21:31:47.871Z,65.96
2019-05-19T21:34:18.449Z,65.98
2019-05-19T21:36:49.970Z,66.03
2019-05-19T21:39:21.674Z,66.29
2019-05-19T21:41:52.257Z,66.11
2019-05-19T21:44:22.816Z,66.17
2019-05-19T21:46:53.388Z,65.80
2019-05-19T21:49:23.964Z,65.82
2019-05-19T21:51:54.678Z,66.31
2019-05-19T21:54:25.383Z,66.07
2019-05-19T21:56:56.041Z,66.47
2019-05-19T21:59:27.875Z,66.53
2019-05-19T22:01:59.083Z,66.30
2019-05-19T22:04:29.743Z,66.58
2019-05-19T22:07:01.945Z,66.61
2019-05-19T22:09:32.530Z,67.10
2019-05-19T22:12:04.616Z,66.95
2019-05-19T22:14:35.315Z,68.17
2019-05-19T22:17:06.083Z,67.77
2019-05-19T22:19:36.666Z,68.17
2019-05-19T22:22:07.322Z,68.13
2019-05-19T22:24:38.274Z,67.62
2019-05-19T22:27:08.996Z,67.63
2019-05-19T22:29:39.681Z,67.76
2019-05-19T22:32:10.230Z,67.62
2019-05-19T22:34:40.812Z,68.28
2019-05-19T22:37:11.382Z,68.19
2019-05-19T22:39:41.949Z,67.71
2019-05-19T22:42:12.611Z,67.80
2019-05-19T22:44:43.261Z,67.74
2019-05-19T22:47:14.105Z,67.89
2019-05-19T22:49:44.886Z,67.92
2019-05-19T22:52:16.612Z,68.42
2019-05-19T22:54:47.173Z,68.91
2019-05-19T22:57:18.201Z,67.90
2019-05-19T22:59:48.880Z,68.05
2019-05-19T23:02:19.624Z,68.04
2019-05-19T23:04:50.705Z,67.79
2019-05-19T23:07:22.323Z,67.84
2019-05-19T23:09:53.068Z,68.08
2019-05-19T23:12:23.902Z,68.58
2019-05-19T23:14:54.576Z,68.50
2019-05-19T23:17:25.243Z,68.57
2019-05-19T23:19:58.000Z,68.89
2019-05-19T23:22:28.787Z,68.91
2019-05-19T23:24:59.585Z,69.00
2019-05-19T23:27:30.343Z,69.26
2019-05-19T23:30:01.026Z,69.31
2019-05-19T23:32:31.759Z,69.59
2019-05-19T23:35:05.335Z,69.50
2019-05-19T23:37:35.903Z,69.64
2019-05-19T23:40:08.979Z,69.44
2019-05-19T23:42:40.431Z,69.60
2019-05-19T23:45:11.377Z,69.65
2019-05-19T23:47:42.036Z,69.70
2019-05-19T23:50:13.638Z,69.99
2019-05-19T23:52:44.593Z,69.80
2019-05-19T23:55:15.233Z,69.78
2019-05-19T23:57:45.781Z,69.89
